Time;durP1;ratioP1;P1;durP2;ratioP2;P2;SDS_P1;SDS_P2;PMS_P1;PMS_P2;Temp;Humidity;BMP_temperature;BMP_pressure;BME280_temperature;BME280_humidity;BME280_pressure;Samples;Min_cycle;Max_cycle;Signal;HPM_P1;HPM_P2
2022/02/13 00:00:15;;;;;;;26.40;16.30;;;1.00;99.90;;;;;;2089252;28;20104;-71
2022/02/13 00:01:18;;;;;;;26.45;16.58;;;1.10;99.90;;;;;;2080335;28;20056;-69
2022/02/13 00:02:18;;;;;;;27.98;15.88;;;1.10;99.90;;;;;;2071998;28;20029;-70
2022/02/13 00:03:20;;;;;;;25.15;15.52;;;1.20;99.90;;;;;;2080086;28;20064;-70
2022/02/13 00:04:21;;;;;;;26.00;15.50;;;1.20;99.90;;;;;;2089009;28;20507;-68
2022/02/13 00:05:22;;;;;;;25.65;15.73;;;1.30;99.90;;;;;;2088282;28;20041;-69
2022/02/13 00:06:23;;;;;;;25.98;15.73;;;1.30;99.90;;;;;;2088262;28;20017;-69
2022/02/13 00:07:23;;;;;;;25.70;15.93;;;1.30;99.90;;;;;;2079930;28;20564;-70
2022/02/13 00:08:24;;;;;;;22.75;15.45;;;1.50;99.90;;;;;;2080144;28;20021;-70
2022/02/13 00:09:25;;;;;;;23.80;15.15;;;1.50;99.90;;;;;;2071723;28;20113;-71
2022/02/13 00:10:25;;;;;;;24.90;15.30;;;1.50;99.90;;;;;;2071242;28;20052;-70
2022/02/13 00:11:26;;;;;;;23.55;15.45;;;1.50;99.90;;;;;;2088681;28;20037;-69
2022/02/13 00:12:27;;;;;;;24.50;15.18;;;1.50;99.90;;;;;;2073380;28;20038;-70
2022/02/13 00:13:29;;;;;;;25.05;15.68;;;1.60;99.90;;;;;;2065038;28;20023;-70
2022/02/13 00:14:30;;;;;;;24.30;15.13;;;1.50;99.90;;;;;;2075761;28;20447;-70
2022/02/13 00:15:30;;;;;;;23.92;15.05;;;1.60;99.90;;;;;;2085273;28;20419;-71
2022/02/13 00:16:31;;;;;;;26.20;15.38;;;1.50;99.90;;;;;;2079591;28;20034;-70
2022/02/13 00:17:32;;;;;;;25.00;15.15;;;1.50;99.90;;;;;;2079871;28;20112;-70
2022/02/13 00:18:32;;;;;;;26.00;15.73;;;1.50;99.90;;;;;;2088579;28;20071;-71
2022/02/13 00:19:33;;;;;;;25.35;15.38;;;1.60;99.90;;;;;;2088703;28;20432;-69
2022/02/13 00:20:34;;;;;;;25.27;16.05;;;1.50;99.90;;;;;;2070924;28;20029;-69
2022/02/13 00:21:35;;;;;;;26.13;15.48;;;1.60;99.90;;;;;;2063171;28;20069;-69
2022/02/13 00:22:36;;;;;;;26.50;15.65;;;1.50;99.90;;;;;;2076307;28;20021;-69
2022/02/13 00:23:39;;;;;;;22.33;14.98;;;1.50;99.90;;;;;;2089018;28;20696;-71
2022/02/13 00:24:40;;;;;;;25.45;15.30;;;1.50;99.90;;;;;;2088603;28;20037;-70
2022/02/13 00:25:43;;;;;;;23.35;15.18;;;1.40;99.90;;;;;;2072338;28;20018;-70
2022/02/13 00:26:43;;;;;;;27.25;15.55;;;1.40;99.90;;;;;;2074908;28;20029;-70
2022/02/13 00:27:45;;;;;;;24.13;14.75;;;1.50;99.90;;;;;;2079739;28;20069;-71
2022/02/13 00:28:46;;;;;;;24.48;15.35;;;1.40;99.90;;;;;;2073044;28;20033;-70
2022/02/13 00:29:46;;;;;;;24.80;15.82;;;1.40;99.90;;;;;;2081113;28;20024;-71
2022/02/13 00:30:47;;;;;;;24.23;15.18;;;1.50;99.90;;;;;;2089105;28;20021;-71
2022/02/13 00:31:47;;;;;;;24.05;14.82;;;1.50;99.90;;;;;;2089252;28;20500;-70
2022/02/13 00:32:50;;;;;;;25.92;16.08;;;1.50;99.90;;;;;;2089017;28;20087;-73
2022/02/13 00:33:51;;;;;;;25.52;15.23;;;1.50;99.90;;;;;;2090068;28;20052;-70
2022/02/13 00:34:51;;;;;;;23.60;15.35;;;1.40;99.90;;;;;;2090490;28;20029;-71
2022/02/13 00:35:52;;;;;;;25.25;15.88;;;1.50;99.90;;;;;;2089341;28;20396;-70
2022/02/13 00:36:52;;;;;;;25.30;16.10;;;1.50;99.90;;;;;;2089616;28;20088;-71
2022/02/13 00:37:53;;;;;;;23.98;15.40;;;1.50;99.90;;;;;;2090077;28;20052;-70
2022/02/13 00:38:54;;;;;;;23.60;15.10;;;1.50;99.90;;;;;;2090680;28;20055;-71
2022/02/13 00:39:54;;;;;;;21.58;14.50;;;1.50;99.90;;;;;;2080114;28;20103;-73
2022/02/13 00:40:55;;;;;;;26.52;15.57;;;1.50;99.90;;;;;;2080572;28;20061;-71
2022/02/13 00:41:56;;;;;;;26.00;16.10;;;1.50;99.90;;;;;;2088621;28;20051;-73
2022/02/13 00:42:57;;;;;;;24.88;15.70;;;1.50;99.90;;;;;;2089239;28;20057;-72
2022/02/13 00:43:57;;;;;;;24.15;16.00;;;1.50;99.90;;;;;;2089543;28;20031;-70
2022/02/13 00:44:59;;;;;;;23.75;15.07;;;1.50;99.90;;;;;;2089521;28;20021;-71
2022/02/13 00:45:59;;;;;;;24.83;14.82;;;1.50;99.90;;;;;;2090867;28;20498;-72
2022/02/13 00:47:00;;;;;;;25.33;15.70;;;1.40;99.90;;;;;;2089610;28;20812;-69
2022/02/13 00:48:01;;;;;;;24.98;15.48;;;1.40;99.90;;;;;;2089341;28;20056;-71
2022/02/13 00:49:02;;;;;;;25.10;15.20;;;1.40;99.90;;;;;;2082109;28;20029;-71
2022/02/13 00:50:03;;;;;;;25.48;16.10;;;1.40;99.90;;;;;;2076340;28;20543;-70
2022/02/13 00:51:04;;;;;;;26.50;15.73;;;1.40;99.90;;;;;;2090165;28;20021;-71
2022/02/13 00:52:05;;;;;;;26.27;15.80;;;1.40;99.90;;;;;;2080777;28;20432;-71
2022/02/13 00:53:07;;;;;;;25.35;15.57;;;1.40;99.90;;;;;;2081342;28;20140;-70
2022/02/13 00:54:07;;;;;;;25.23;15.68;;;1.40;99.90;;;;;;2080971;28;20014;-71
2022/02/13 00:55:08;;;;;;;22.88;15.00;;;1.40;99.90;;;;;;2081138;28;20491;-71
2022/02/13 00:56:09;;;;;;;24.65;15.68;;;1.30;99.90;;;;;;2073528;28;20022;-71
2022/02/13 00:57:10;;;;;;;24.30;16.05;;;1.30;99.90;;;;;;2081297;28;20139;-70
2022/02/13 00:58:11;;;;;;;24.80;15.88;;;1.40;99.90;;;;;;2089785;28;20074;-72
2022/02/13 00:59:11;;;;;;;24.25;15.93;;;1.30;99.90;;;;;;2080827;28;20047;-71
2022/02/13 01:00:12;;;;;;;26.85;16.33;;;1.30;99.90;;;;;;2080279;28;20596;-73
2022/02/13 01:01:13;;;;;;;26.40;16.63;;;1.30;99.90;;;;;;2080791;28;20517;-72
2022/02/13 01:02:14;;;;;;;25.40;16.35;;;1.30;99.90;;;;;;2089466;28;20424;-72
2022/02/13 01:03:15;;;;;;;24.60;15.60;;;1.30;99.90;;;;;;2089702;28;20036;-72
2022/02/13 01:04:16;;;;;;;24.15;15.80;;;1.30;99.90;;;;;;2090123;28;20021;-72
2022/02/13 01:05:17;;;;;;;23.30;15.23;;;1.30;99.90;;;;;;2090177;28;20511;-71
2022/02/13 01:06:18;;;;;;;24.38;15.93;;;1.20;99.90;;;;;;2081152;28;20029;-72
2022/02/13 01:07:19;;;;;;;24.35;16.10;;;1.20;99.90;;;;;;2081317;28;20089;-71
2022/02/13 01:08:19;;;;;;;22.92;15.23;;;1.20;99.90;;;;;;2080635;28;20029;-71
2022/02/13 01:09:20;;;;;;;25.63;16.48;;;1.20;99.90;;;;;;2080891;28;20034;-71
2022/02/13 01:10:21;;;;;;;24.75;15.90;;;1.20;99.90;;;;;;2089688;28;20100;-71
2022/02/13 01:11:21;;;;;;;25.38;15.73;;;1.20;99.90;;;;;;2090423;28;20052;-71
2022/02/13 01:12:22;;;;;;;25.02;15.70;;;1.20;99.90;;;;;;2089810;28;20305;-72
2022/02/13 01:13:23;;;;;;;24.00;15.65;;;1.10;99.90;;;;;;2090138;28;20076;-72
2022/02/13 01:14:24;;;;;;;26.25;15.75;;;1.10;99.90;;;;;;2081654;28;20112;-71
2022/02/13 01:15:25;;;;;;;23.90;15.65;;;1.10;99.90;;;;;;2081217;28;20029;-71
2022/02/13 01:16:26;;;;;;;24.58;15.95;;;1.10;99.90;;;;;;2081427;28;20033;-71
2022/02/13 01:17:27;;;;;;;23.67;15.48;;;1.10;99.90;;;;;;2081647;28;20037;-71
2022/02/13 01:18:29;;;;;;;23.95;16.33;;;1.10;99.90;;;;;;2089777;28;20109;-71
2022/02/13 01:19:30;;;;;;;26.75;16.17;;;1.10;99.90;;;;;;2080787;28;20630;-71
2022/02/13 01:20:31;;;;;;;23.20;15.38;;;1.00;99.90;;;;;;2080480;28;20038;-70
2022/02/13 01:21:31;;;;;;;24.15;15.68;;;1.00;99.90;;;;;;2089307;28;20033;-70
2022/02/13 01:22:32;;;;;;;26.25;15.60;;;1.00;99.90;;;;;;2089774;28;20365;-70
2022/02/13 01:23:33;;;;;;;25.88;16.75;;;1.00;99.90;;;;;;2080769;28;20072;-72
2022/02/13 01:24:34;;;;;;;23.92;15.57;;;1.00;99.90;;;;;;2080750;28;20041;-72
2022/02/13 01:25:35;;;;;;;25.13;16.10;;;1.00;99.90;;;;;;2089677;28;20025;-73
2022/02/13 01:26:35;;;;;;;25.92;16.52;;;1.00;99.90;;;;;;2089761;28;20111;-71
2022/02/13 01:27:36;;;;;;;24.05;16.10;;;1.00;99.90;;;;;;2081173;28;20021;-70
2022/02/13 01:28:38;;;;;;;26.70;16.05;;;1.00;99.90;;;;;;2072873;28;20037;-72
2022/02/13 01:29:38;;;;;;;25.15;15.63;;;1.00;99.90;;;;;;2081049;28;20021;-72
2022/02/13 01:30:40;;;;;;;25.73;16.30;;;1.00;99.90;;;;;;2080468;28;20497;-71
2022/02/13 01:31:41;;;;;;;25.08;16.50;;;1.00;99.90;;;;;;2080750;28;20433;-71
2022/02/13 01:32:41;;;;;;;25.50;16.52;;;1.00;99.90;;;;;;2089533;28;20044;-73
2022/02/13 01:33:43;;;;;;;26.17;16.52;;;1.10;99.90;;;;;;2089425;28;20017;-71
2022/02/13 01:34:44;;;;;;;25.27;16.30;;;1.00;99.90;;;;;;2089631;28;20132;-70
2022/02/13 01:35:44;;;;;;;25.13;16.23;;;1.00;99.90;;;;;;2089455;28;20324;-70
2022/02/13 01:36:46;;;;;;;25.20;15.73;;;1.00;99.90;;;;;;2080889;28;20036;-71
2022/02/13 01:37:47;;;;;;;23.83;15.65;;;1.00;99.90;;;;;;2080895;28;20154;-70
2022/02/13 01:38:47;;;;;;;24.92;16.17;;;1.00;99.90;;;;;;2089719;28;20044;-71
2022/02/13 01:39:48;;;;;;;24.65;15.77;;;1.10;99.90;;;;;;2080300;28;20028;-70
2022/02/13 01:40:49;;;;;;;25.42;16.08;;;1.10;99.90;;;;;;2080683;28;20517;-70
2022/02/13 01:41:50;;;;;;;23.23;15.88;;;1.10;99.90;;;;;;2089606;28;20025;-71
2022/02/13 01:42:53;;;;;;;25.83;15.52;;;1.00;99.90;;;;;;2089756;28;20053;-73
2022/02/13 01:43:57;;;;;;;24.90;16.05;;;1.00;99.90;;;;;;2092059;28;20443;-71
2022/02/13 01:44:58;;;;;;;25.05;16.25;;;1.00;99.90;;;;;;2090473;28;20140;-69
2022/02/13 01:45:59;;;;;;;24.05;15.88;;;1.00;99.90;;;;;;2090061;28;20025;-70
2022/02/13 01:47:02;;;;;;;27.83;18.33;;;0.90;99.90;;;;;;2091540;28;20055;-70
2022/02/13 01:48:03;;;;;;;27.05;16.92;;;0.90;99.90;;;;;;2090112;28;20016;-71
2022/02/13 01:49:04;;;;;;;26.55;16.88;;;1.00;99.90;;;;;;2089841;28;20025;-70
2022/02/13 01:50:08;;;;;;;27.23;16.88;;;1.00;99.90;;;;;;2089784;28;20106;-70
2022/02/13 01:51:09;;;;;;;23.98;15.95;;;1.00;99.90;;;;;;2089768;28;20029;-71
2022/02/13 01:52:09;;;;;;;24.63;15.48;;;1.00;99.90;;;;;;2089829;28;20062;-71
2022/02/13 01:53:10;;;;;;;24.77;16.35;;;1.00;99.90;;;;;;2090432;28;20029;-71
2022/02/13 01:54:11;;;;;;;27.48;16.17;;;1.00;99.90;;;;;;2089833;28;20492;-70
2022/02/13 01:55:12;;;;;;;26.50;16.90;;;1.10;99.90;;;;;;2090151;28;20036;-72
2022/02/13 01:56:13;;;;;;;25.25;16.17;;;1.10;99.90;;;;;;2081501;28;20076;-71
2022/02/13 01:57:15;;;;;;;24.90;16.35;;;1.10;99.90;;;;;;2073155;28;20037;-70
2022/02/13 01:58:29;;;;;;;25.05;16.55;;;1.10;99.90;;;;;;2073032;28;20036;-70
2022/02/13 01:59:46;;;;;;;26.60;16.77;;;1.10;99.90;;;;;;2084948;28;20039;-69
2022/02/13 02:00:47;;;;;;;26.20;16.63;;;1.10;99.90;;;;;;2080993;28;20041;-71
2022/02/13 02:01:48;;;;;;;28.33;16.77;;;1.10;99.90;;;;;;2072806;28;20022;-72
2022/02/13 02:02:49;;;;;;;26.02;15.82;;;1.10;99.90;;;;;;2073217;28;20038;-70
2022/02/13 02:03:49;;;;;;;25.75;16.48;;;1.10;99.90;;;;;;2072720;28;20032;-70
2022/02/13 02:04:53;;;;;;;24.33;16.10;;;1.10;99.90;;;;;;2080795;28;20101;-70
2022/02/13 02:05:54;;;;;;;24.58;15.93;;;1.10;99.90;;;;;;2081126;28;20056;-71
2022/02/13 02:06:55;;;;;;;25.83;16.08;;;1.10;99.90;;;;;;2089865;28;20393;-71
2022/02/13 02:07:55;;;;;;;26.70;16.60;;;1.10;99.90;;;;;;2089975;28;20776;-70
2022/02/13 02:08:56;;;;;;;26.08;16.40;;;1.10;99.90;;;;;;2089994;28;20432;-70
2022/02/13 02:09:56;;;;;;;27.20;16.15;;;1.10;99.90;;;;;;2089774;28;20051;-72
2022/02/13 02:10:57;;;;;;;27.85;16.10;;;1.10;99.90;;;;;;2081064;28;20052;-70
2022/02/13 02:12:05;;;;;;;25.55;16.00;;;1.10;99.90;;;;;;2080688;28;20029;-69
2022/02/13 02:13:05;;;;;;;25.25;15.45;;;1.10;99.90;;;;;;2089689;28;20025;-69
2022/02/13 02:14:09;;;;;;;23.67;15.75;;;1.10;99.90;;;;;;2080617;28;20025;-69
2022/02/13 02:15:10;;;;;;;27.40;16.50;;;1.00;99.90;;;;;;2080946;28;20029;-69
2022/02/13 02:16:11;;;;;;;25.77;16.83;;;1.00;99.90;;;;;;2089927;28;20099;-69
2022/02/13 02:17:11;;;;;;;27.17;16.70;;;1.00;99.90;;;;;;2089670;28;20021;-69
2022/02/13 02:18:12;;;;;;;24.75;16.38;;;1.00;99.90;;;;;;2089829;28;20053;-70
2022/02/13 02:19:13;;;;;;;25.98;16.00;;;0.90;99.90;;;;;;2089527;28;20075;-70
2022/02/13 02:20:14;;;;;;;23.70;15.45;;;0.90;99.90;;;;;;2080087;28;20048;-71
2022/02/13 02:21:15;;;;;;;27.33;16.35;;;0.90;99.90;;;;;;2080697;28;20429;-71
2022/02/13 02:22:16;;;;;;;25.25;16.10;;;0.80;99.90;;;;;;2080518;28;20041;-70
2022/02/13 02:23:17;;;;;;;26.48;16.25;;;0.90;99.90;;;;;;2082425;28;20485;-70
2022/02/13 02:24:17;;;;;;;27.23;16.92;;;0.80;99.90;;;;;;2081482;28;20033;-69
2022/02/13 02:25:18;;;;;;;28.10;17.02;;;0.80;99.90;;;;;;2091877;28;20465;-69
2022/02/13 02:26:19;;;;;;;27.45;16.77;;;0.80;99.90;;;;;;2091699;28;20031;-70
2022/02/13 02:27:19;;;;;;;25.17;15.50;;;0.80;99.90;;;;;;2091542;28;20066;-70
2022/02/13 02:28:20;;;;;;;25.40;16.10;;;0.80;99.90;;;;;;2091364;28;20029;-71
2022/02/13 02:29:21;;;;;;;27.48;16.40;;;0.80;99.90;;;;;;2090465;28;20582;-71
2022/02/13 02:30:21;;;;;;;26.67;16.17;;;0.80;99.90;;;;;;2089708;28;20037;-72
2022/02/13 02:31:22;;;;;;;25.05;16.20;;;0.80;99.90;;;;;;2090242;28;20021;-71
2022/02/13 02:32:23;;;;;;;26.42;16.25;;;0.70;99.90;;;;;;2089899;28;20108;-70
2022/02/13 02:33:23;;;;;;;26.10;15.60;;;0.70;99.90;;;;;;2090426;28;20052;-70
2022/02/13 02:34:25;;;;;;;26.00;15.98;;;0.70;99.90;;;;;;2089483;28;20036;-70
2022/02/13 02:35:25;;;;;;;22.95;15.07;;;0.70;99.90;;;;;;2090654;28;20090;-71
2022/02/13 02:36:27;;;;;;;25.55;15.80;;;0.60;99.90;;;;;;2091353;28;20075;-70
2022/02/13 02:37:27;;;;;;;24.00;16.02;;;0.60;99.90;;;;;;2082015;28;20044;-71
2022/02/13 02:38:28;;;;;;;24.35;15.57;;;0.60;99.90;;;;;;2082427;28;20043;-70
2022/02/13 02:39:28;;;;;;;24.00;15.63;;;0.60;99.90;;;;;;2091079;28;20032;-70
2022/02/13 02:40:29;;;;;;;27.65;16.77;;;0.60;99.90;;;;;;2090513;28;20033;-70
2022/02/13 02:41:30;;;;;;;25.90;16.58;;;0.60;99.90;;;;;;2090372;28;20033;-71
2022/02/13 02:42:31;;;;;;;26.80;17.25;;;0.60;99.90;;;;;;2080524;28;20809;-68
2022/02/13 02:43:32;;;;;;;27.10;16.77;;;0.60;99.90;;;;;;2080486;28;20041;-71
2022/02/13 02:44:32;;;;;;;27.65;16.17;;;0.60;99.90;;;;;;2091408;28;20029;-70
2022/02/13 02:45:33;;;;;;;26.42;16.65;;;0.60;99.90;;;;;;2081588;28;20037;-71
2022/02/13 02:46:34;;;;;;;25.92;16.30;;;0.60;99.90;;;;;;2081352;28;20033;-70
2022/02/13 02:47:34;;;;;;;25.17;16.80;;;0.60;99.90;;;;;;2089687;28;20052;-71
2022/02/13 02:48:35;;;;;;;25.50;16.75;;;0.70;99.90;;;;;;2090089;28;20056;-70
2022/02/13 02:49:36;;;;;;;26.85;16.88;;;0.70;99.90;;;;;;2090136;28;20083;-71
2022/02/13 02:50:37;;;;;;;26.90;16.50;;;0.70;99.90;;;;;;2090316;28;20052;-70
2022/02/13 02:51:38;;;;;;;25.85;16.15;;;0.70;99.90;;;;;;2090059;28;20025;-70
2022/02/13 02:52:38;;;;;;;26.30;16.52;;;0.70;99.90;;;;;;2090312;28;20029;-71
2022/02/13 02:53:39;;;;;;;26.08;16.60;;;0.70;99.90;;;;;;2089870;28;20127;-70
2022/02/13 02:54:40;;;;;;;24.35;15.85;;;0.70;99.90;;;;;;2080809;28;20048;-70
2022/02/13 02:55:40;;;;;;;26.83;16.58;;;0.60;99.90;;;;;;2072903;28;20036;-71
2022/02/13 02:56:41;;;;;;;28.02;16.25;;;0.60;99.90;;;;;;2081041;28;20060;-71
2022/02/13 02:57:42;;;;;;;24.88;16.08;;;0.60;99.90;;;;;;2089688;28;20033;-70
2022/02/13 02:58:42;;;;;;;24.73;16.00;;;0.60;99.90;;;;;;2089755;28;20484;-70
2022/02/13 02:59:43;;;;;;;24.88;16.02;;;0.60;99.90;;;;;;2081391;28;20025;-72
2022/02/13 03:00:44;;;;;;;26.25;15.90;;;0.60;99.90;;;;;;2081411;28;20115;-70
2022/02/13 03:01:45;;;;;;;25.08;16.23;;;0.60;99.90;;;;;;2089943;28;20077;-70
2022/02/13 03:02:45;;;;;;;25.55;17.13;;;0.60;99.90;;;;;;2089762;28;20071;-70
2022/02/13 03:03:46;;;;;;;24.80;16.05;;;0.60;99.90;;;;;;2089026;28;20487;-71
2022/02/13 03:04:46;;;;;;;28.08;17.02;;;0.60;99.90;;;;;;2090370;28;20055;-70
2022/02/13 03:05:51;;;;;;;23.77;15.48;;;0.60;99.90;;;;;;2089350;28;20040;-70
2022/02/13 03:06:51;;;;;;;23.45;15.68;;;0.60;99.90;;;;;;2089046;28;20108;-70
2022/02/13 03:07:52;;;;;;;25.70;16.55;;;0.60;99.90;;;;;;2080181;28;20481;-70
2022/02/13 03:08:52;;;;;;;24.67;16.08;;;0.60;99.90;;;;;;2072289;28;20148;-72
2022/02/13 03:09:53;;;;;;;27.67;16.85;;;0.60;99.90;;;;;;2079918;28;20053;-71
2022/02/13 03:10:54;;;;;;;27.73;17.10;;;0.60;99.90;;;;;;2079841;28;20117;-69
2022/02/13 03:11:54;;;;;;;27.83;16.02;;;0.60;99.90;;;;;;2079762;28;20116;-71
2022/02/13 03:12:55;;;;;;;23.92;15.85;;;0.60;99.90;;;;;;2071884;28;20052;-70
2022/02/13 03:13:57;;;;;;;26.88;16.45;;;0.60;99.90;;;;;;2080215;28;20424;-70
2022/02/13 03:14:57;;;;;;;25.27;16.83;;;0.70;99.90;;;;;;2088955;28;20064;-71
2022/02/13 03:15:58;;;;;;;24.33;15.57;;;0.70;99.90;;;;;;2089566;28;20086;-69
2022/02/13 03:17:01;;;;;;;26.70;16.50;;;0.60;99.90;;;;;;2090301;28;20495;-72
2022/02/13 03:18:02;;;;;;;25.98;15.52;;;0.60;99.90;;;;;;2089695;28;20033;-70
2022/02/13 03:19:03;;;;;;;22.88;15.05;;;0.60;99.90;;;;;;2089953;28;20063;-70
2022/02/13 03:20:04;;;;;;;22.33;14.82;;;0.60;99.90;;;;;;2088769;28;20060;-70
2022/02/13 03:21:05;;;;;;;21.02;14.38;;;0.50;99.90;;;;;;2080486;28;20061;-71
2022/02/13 03:22:06;;;;;;;20.88;14.30;;;0.50;99.90;;;;;;2080547;28;20033;-71
2022/02/13 03:23:07;;;;;;;21.40;13.57;;;0.40;99.90;;;;;;2089592;28;20035;-70
2022/02/13 03:24:09;;;;;;;21.17;13.55;;;0.40;99.90;;;;;;2089731;28;20055;-70
2022/02/13 03:25:10;;;;;;;21.80;13.43;;;0.30;99.90;;;;;;2080702;28;20064;-72
2022/02/13 03:26:10;;;;;;;20.02;13.30;;;0.30;99.90;;;;;;2072650;28;20026;-70
2022/02/13 03:27:13;;;;;;;18.55;12.80;;;0.20;99.90;;;;;;2081049;28;20074;-69
2022/02/13 03:28:14;;;;;;;21.92;13.70;;;0.20;99.90;;;;;;2080594;28;20034;-70
2022/02/13 03:29:15;;;;;;;19.98;13.30;;;0.10;99.90;;;;;;2081448;28;20026;-71
2022/02/13 03:30:16;;;;;;;18.83;12.82;;;0.10;99.90;;;;;;2080365;28;20025;-71
2022/02/13 03:31:16;;;;;;;19.55;13.00;;;0.10;99.90;;;;;;2081356;28;20026;-71
2022/02/13 03:32:17;;;;;;;23.00;14.30;;;0.10;99.90;;;;;;2089771;28;20036;-70
2022/02/13 03:33:17;;;;;;;22.63;14.50;;;0.10;99.90;;;;;;2089937;28;20031;-70
2022/02/13 03:34:18;;;;;;;20.30;13.48;;;0.10;99.90;;;;;;2089035;28;20029;-70
2022/02/13 03:35:19;;;;;;;21.98;14.70;;;0.00;99.90;;;;;;2088949;28;20083;-70
2022/02/13 03:36:19;;;;;;;20.48;13.38;;;0.00;99.90;;;;;;2073352;28;20548;-70
2022/02/13 03:37:20;;;;;;;23.35;14.32;;;0.00;99.90;;;;;;2073188;28;20057;-70
2022/02/13 03:38:23;;;;;;;22.02;14.32;;;0.00;99.90;;;;;;2090461;28;20028;-71
2022/02/13 03:39:28;;;;;;;21.58;13.90;;;0.00;99.90;;;;;;2090843;28;20040;-71
2022/02/13 03:40:29;;;;;;;20.35;13.45;;;0.00;99.90;;;;;;2089633;28;20523;-70
2022/02/13 03:41:30;;;;;;;21.20;14.13;;;0.00;99.90;;;;;;2081761;28;20112;-70
2022/02/13 03:42:31;;;;;;;27.52;16.25;;;0.00;99.90;;;;;;2081885;28;20679;-71
2022/02/13 03:43:32;;;;;;;24.10;15.68;;;0.00;99.90;;;;;;2089887;28;20125;-72
2022/02/13 03:44:33;;;;;;;24.33;15.05;;;0.00;99.90;;;;;;2090022;28;20023;-70
2022/02/13 03:45:34;;;;;;;23.15;14.38;;;0.00;99.90;;;;;;2089650;28;20056;-71
2022/02/13 03:46:35;;;;;;;20.98;13.90;;;0.00;99.90;;;;;;2090113;28;20025;-71
2022/02/13 03:47:36;;;;;;;21.17;14.05;;;0.00;99.90;;;;;;2089710;28;20516;-71
2022/02/13 03:48:36;;;;;;;23.33;14.32;;;-0.10;99.90;;;;;;2090138;28;20052;-71
2022/02/13 03:49:37;;;;;;;21.85;13.90;;;-0.10;99.90;;;;;;2089833;28;20021;-71
2022/02/13 03:50:38;;;;;;;19.80;13.07;;;-0.10;99.90;;;;;;2080637;28;20021;-71
2022/02/13 03:51:39;;;;;;;21.95;14.48;;;-0.10;99.90;;;;;;2081336;28;20042;-70
2022/02/13 03:52:40;;;;;;;21.83;13.93;;;-0.10;99.90;;;;;;2081669;28;20034;-71
2022/02/13 03:53:40;;;;;;;23.13;14.40;;;-0.10;99.90;;;;;;2079742;28;20113;-71
2022/02/13 03:54:41;;;;;;;23.17;15.35;;;-0.10;99.90;;;;;;2080916;28;20017;-70
2022/02/13 03:55:41;;;;;;;22.98;14.63;;;-0.10;99.90;;;;;;2080841;28;20036;-71
2022/02/13 03:56:42;;;;;;;23.63;14.50;;;-0.10;99.90;;;;;;2090439;28;20025;-70
2022/02/13 03:57:44;;;;;;;21.95;14.50;;;-0.10;99.90;;;;;;2089742;28;20566;-71
2022/02/13 03:58:44;;;;;;;22.42;14.20;;;-0.10;99.90;;;;;;2089705;28;20109;-71
2022/02/13 03:59:45;;;;;;;25.58;16.65;;;-0.10;99.90;;;;;;2088627;28;20036;-71
2022/02/13 04:00:46;;;;;;;25.95;16.13;;;-0.10;99.90;;;;;;2088916;28;20119;-71
2022/02/13 04:01:46;;;;;;;26.25;15.95;;;-0.10;99.90;;;;;;2088429;28;20032;-71
2022/02/13 04:02:47;;;;;;;24.05;15.73;;;-0.10;99.90;;;;;;2088839;28;20025;-70
2022/02/13 04:03:47;;;;;;;24.17;14.95;;;-0.10;99.90;;;;;;2088596;28;20025;-70
2022/02/13 04:04:48;;;;;;;23.00;15.07;;;-0.10;99.90;;;;;;2088622;28;20043;-70
2022/02/13 04:05:49;;;;;;;23.90;15.38;;;-0.10;99.90;;;;;;2079839;28;20022;-71
2022/02/13 04:06:50;;;;;;;21.75;13.50;;;-0.10;99.90;;;;;;2079905;28;20017;-70
2022/02/13 04:07:50;;;;;;;22.23;14.40;;;-0.20;99.90;;;;;;2079856;28;20503;-71
2022/02/13 04:08:51;;;;;;;23.13;14.48;;;-0.20;99.90;;;;;;2071884;28;20033;-71
2022/02/13 04:09:51;;;;;;;22.10;14.38;;;-0.20;99.90;;;;;;2079452;28;20103;-70
2022/02/13 04:10:52;;;;;;;22.40;14.82;;;-0.20;99.90;;;;;;2072042;28;20026;-71
2022/02/13 04:11:53;;;;;;;22.70;13.70;;;-0.20;99.90;;;;;;2079493;28;20501;-71
2022/02/13 04:12:56;;;;;;;22.20;14.00;;;-0.20;99.90;;;;;;2088808;28;20680;-71
2022/02/13 04:13:57;;;;;;;24.63;15.48;;;-0.30;99.90;;;;;;2079992;28;20029;-71
2022/02/13 04:14:58;;;;;;;24.52;15.45;;;-0.30;99.90;;;;;;2079758;28;20029;-70
2022/02/13 04:15:59;;;;;;;26.23;15.52;;;-0.30;99.90;;;;;;2088678;28;20485;-70
2022/02/13 04:16:59;;;;;;;24.80;15.88;;;-0.30;99.90;;;;;;2079834;28;20029;-71
2022/02/13 04:18:00;;;;;;;24.83;15.40;;;-0.30;99.90;;;;;;2080165;28;20460;-70
2022/02/13 04:19:01;;;;;;;24.35;15.07;;;-0.30;99.90;;;;;;2088628;28;20531;-71
2022/02/13 04:20:02;;;;;;;25.15;15.43;;;-0.30;99.90;;;;;;2088276;28;20033;-71
2022/02/13 04:21:03;;;;;;;24.98;15.48;;;-0.30;99.90;;;;;;2088724;28;20435;-70
2022/02/13 04:22:03;;;;;;;24.20;15.45;;;-0.30;99.90;;;;;;2088647;28;20025;-70
2022/02/13 04:23:04;;;;;;;24.88;14.88;;;-0.30;99.90;;;;;;2072595;28;20038;-71
2022/02/13 04:24:05;;;;;;;24.25;15.40;;;-0.30;99.90;;;;;;2073921;28;20092;-71
2022/02/13 04:25:06;;;;;;;23.95;14.85;;;-0.30;99.90;;;;;;2083303;28;20033;-70
2022/02/13 04:26:06;;;;;;;23.65;14.70;;;-0.30;99.90;;;;;;2074989;28;20034;-70
2022/02/13 04:27:07;;;;;;;24.90;15.05;;;-0.40;99.90;;;;;;2083470;28;20513;-70
2022/02/13 04:28:08;;;;;;;26.42;15.57;;;-0.40;99.90;;;;;;2091913;28;20057;-70
2022/02/13 04:29:09;;;;;;;25.40;15.13;;;-0.40;99.90;;;;;;2082819;28;20037;-70
2022/02/13 04:30:10;;;;;;;30.73;17.83;;;-0.40;99.90;;;;;;2082940;28;20017;-71
2022/02/13 04:31:10;;;;;;;29.17;17.63;;;-0.40;99.90;;;;;;2092384;28;20028;-71
2022/02/13 04:32:11;;;;;;;28.52;16.70;;;-0.40;99.90;;;;;;2092577;28;20031;-72
2022/02/13 04:33:11;;;;;;;26.02;16.30;;;-0.40;99.90;;;;;;2093999;28;20480;-70
2022/02/13 04:34:12;;;;;;;29.75;17.50;;;-0.40;99.90;;;;;;2092762;28;20562;-71
2022/02/13 04:35:12;;;;;;;31.90;18.92;;;-0.40;99.90;;;;;;2093451;28;20060;-70
2022/02/13 04:36:13;;;;;;;28.85;17.60;;;-0.30;99.90;;;;;;2094298;28;20044;-71
2022/02/13 04:37:14;;;;;;;28.48;17.33;;;-0.30;99.90;;;;;;2085031;28;20029;-71
2022/02/13 04:38:15;;;;;;;30.98;17.45;;;-0.30;99.90;;;;;;2086094;28;20026;-71
2022/02/13 04:39:15;;;;;;;29.98;18.13;;;-0.30;99.90;;;;;;2085282;28;20041;-70
2022/02/13 04:40:16;;;;;;;29.20;17.90;;;-0.30;99.90;;;;;;2084031;28;20026;-70
2022/02/13 04:41:16;;;;;;;28.23;17.33;;;-0.20;99.90;;;;;;2093108;28;20488;-70
2022/02/13 04:42:17;;;;;;;32.03;17.77;;;-0.10;99.90;;;;;;2083373;28;20075;-70
2022/02/13 04:43:18;;;;;;;28.88;17.45;;;-0.10;99.90;;;;;;2082627;28;20033;-70
2022/02/13 04:44:18;;;;;;;29.58;17.65;;;0.00;99.90;;;;;;2090645;28;20025;-70
2022/02/13 04:45:19;;;;;;;27.98;17.27;;;0.00;99.90;;;;;;2090487;28;20107;-70
2022/02/13 04:46:20;;;;;;;26.45;16.65;;;0.10;99.90;;;;;;2090481;28;20124;-70
2022/02/13 04:47:20;;;;;;;26.83;16.45;;;0.00;99.90;;;;;;2090695;28;20416;-70
2022/02/13 04:48:21;;;;;;;28.92;17.15;;;0.00;99.90;;;;;;2089915;28;20047;-70
2022/02/13 04:49:21;;;;;;;27.58;17.20;;;0.00;99.90;;;;;;2090483;28;20053;-71
2022/02/13 04:50:22;;;;;;;28.20;17.20;;;0.00;99.90;;;;;;2072697;28;20029;-70
2022/02/13 04:51:23;;;;;;;25.67;16.33;;;0.00;99.90;;;;;;2073138;28;20034;-70
2022/02/13 04:52:23;;;;;;;27.98;17.17;;;0.00;99.90;;;;;;2081325;28;20107;-69
2022/02/13 04:53:24;;;;;;;25.40;16.52;;;0.00;99.90;;;;;;2090114;28;20033;-70
2022/02/13 04:54:24;;;;;;;27.75;16.55;;;-0.10;99.90;;;;;;2090148;28;20035;-71
2022/02/13 04:55:25;;;;;;;25.73;16.77;;;-0.10;99.90;;;;;;2081516;28;20610;-70
2022/02/13 04:56:26;;;;;;;28.08;17.15;;;-0.10;99.90;;;;;;2081279;28;20027;-72
2022/02/13 04:57:27;;;;;;;27.33;17.48;;;-0.10;99.90;;;;;;2090249;28;20392;-71
2022/02/13 04:58:27;;;;;;;28.40;18.15;;;-0.10;99.90;;;;;;2081690;28;20033;-71
2022/02/13 04:59:33;;;;;;;28.98;17.40;;;0.00;99.90;;;;;;2082449;28;20489;-71
2022/02/13 05:00:33;;;;;;;30.27;18.10;;;0.10;99.90;;;;;;2090642;28;20323;-71
2022/02/13 05:01:34;;;;;;;28.48;17.48;;;0.10;99.90;;;;;;2081778;28;20073;-71
2022/02/13 05:02:35;;;;;;;27.75;17.00;;;0.10;99.90;;;;;;2082553;28;20461;-71
2022/02/13 05:03:36;;;;;;;27.85;17.45;;;0.10;99.90;;;;;;2091772;28;20028;-71
2022/02/13 05:04:37;;;;;;;27.27;17.30;;;0.00;99.90;;;;;;2091668;28;20029;-71
2022/02/13 05:05:39;;;;;;;26.67;16.23;;;0.00;99.90;;;;;;2091532;28;20025;-70
2022/02/13 05:06:39;;;;;;;27.20;16.17;;;-0.10;99.90;;;;;;2090583;28;20108;-70
2022/02/13 05:07:41;;;;;;;28.05;17.38;;;-0.10;99.90;;;;;;2090441;28;20037;-70
2022/02/13 05:08:41;;;;;;;26.55;16.75;;;-0.10;99.90;;;;;;2090034;28;20126;-70
2022/02/13 05:09:42;;;;;;;26.67;17.05;;;-0.20;99.90;;;;;;2089981;28;20025;-70
2022/02/13 05:10:42;;;;;;;24.83;16.40;;;-0.20;99.90;;;;;;2089532;28;20490;-70
2022/02/13 05:11:43;;;;;;;26.88;16.65;;;-0.20;99.90;;;;;;2080892;28;20025;-70
2022/02/13 05:12:44;;;;;;;26.65;17.42;;;-0.20;99.90;;;;;;2081039;28;20591;-71